sensor_id;sensor_type;location;lat;lon;timestamp;temperature;humidity
52531;DHT22;38441;52.894;6.040;2024-01-10T00:02:04;-3.50;99.90
52531;DHT22;38441;52.894;6.040;2024-01-10T00:04:29;-3.50;99.90
52531;DHT22;38441;52.894;6.040;2024-01-10T00:06:55;-3.70;99.90
52531;DHT22;38441;52.894;6.040;2024-01-10T00:09:21;-3.60;99.90
52531;DHT22;38441;52.894;6.040;2024-01-10T00:11:46;-3.60;99.90
52531;DHT22;38441;52.894;6.040;2024-01-10T00:14:12;-3.60;99.90
52531;DHT22;38441;52.894;6.040;2024-01-10T00:16:38;-3.50;99.90
52531;DHT22;38441;52.894;6.040;2024-01-10T00:19:03;-3.70;99.90
52531;DHT22;38441;52.894;6.040;2024-01-10T00:21:29;-3.50;99.90
52531;DHT22;38441;52.894;6.040;2024-01-10T00:23:55;-3.60;99.90
52531;DHT22;38441;52.894;6.040;2024-01-10T00:26:20;-3.70;99.90
52531;DHT22;38441;52.894;6.040;2024-01-10T00:28:46;-3.70;99.90
52531;DHT22;38441;52.894;6.040;2024-01-10T00:31:13;-3.70;99.90
52531;DHT22;38441;52.894;6.040;2024-01-10T00:33:39;-3.60;99.90
52531;DHT22;38441;52.894;6.040;2024-01-10T00:36:05;-3.70;99.90
52531;DHT22;38441;52.894;6.040;2024-01-10T00:38:31;-3.60;99.90
52531;DHT22;38441;52.894;6.040;2024-01-10T00:40:57;-3.70;99.90
52531;DHT22;38441;52.894;6.040;2024-01-10T00:43:22;-3.80;99.90
52531;DHT22;38441;52.894;6.040;2024-01-10T00:45:48;-3.70;99.90
52531;DHT22;38441;52.894;6.040;2024-01-10T00:48:14;-3.80;99.90
52531;DHT22;38441;52.894;6.040;2024-01-10T00:50:39;-3.70;99.90
52531;DHT22;38441;52.894;6.040;2024-01-10T00:53:05;-3.60;99.90
52531;DHT22;38441;52.894;6.040;2024-01-10T00:55:31;-3.90;99.90
52531;DHT22;38441;52.894;6.040;2024-01-10T01:00:23;-3.90;99.90
52531;DHT22;38441;52.894;6.040;2024-01-10T01:02:48;-3.50;99.90
52531;DHT22;38441;52.894;6.040;2024-01-10T01:05:14;-3.60;99.90
52531;DHT22;38441;52.894;6.040;2024-01-10T01:07:40;-3.70;99.90
52531;DHT22;38441;52.894;6.040;2024-01-10T01:10:06;-3.70;99.90
52531;DHT22;38441;52.894;6.040;2024-01-10T01:12:34;-3.80;99.90
52531;DHT22;38441;52.894;6.040;2024-01-10T01:14:59;-3.70;99.90
52531;DHT22;38441;52.894;6.040;2024-01-10T01:17:25;-4.10;99.90
52531;DHT22;38441;52.894;6.040;2024-01-10T01:19:51;-3.80;99.90
52531;DHT22;38441;52.894;6.040;2024-01-10T01:22:16;-3.80;99.90
52531;DHT22;38441;52.894;6.040;2024-01-10T01:24:42;-3.70;99.90
52531;DHT22;38441;52.894;6.040;2024-01-10T01:27:08;-3.70;99.90
52531;DHT22;38441;52.894;6.040;2024-01-10T01:29:33;-4.00;99.90
52531;DHT22;38441;52.894;6.040;2024-01-10T01:31:59;-3.70;99.90
52531;DHT22;38441;52.894;6.040;2024-01-10T01:34:24;-3.80;99.90
52531;DHT22;38441;52.894;6.040;2024-01-10T01:36:50;-3.70;99.90
52531;DHT22;38441;52.894;6.040;2024-01-10T01:39:18;-3.80;99.90
52531;DHT22;38441;52.894;6.040;2024-01-10T01:41:43;-3.80;99.90
52531;DHT22;38441;52.894;6.040;2024-01-10T01:44:09;-3.70;99.90
52531;DHT22;38441;52.894;6.040;2024-01-10T01:46:35;-3.70;99.90
52531;DHT22;38441;52.894;6.040;2024-01-10T01:49:01;-3.90;99.90
52531;DHT22;38441;52.894;6.040;2024-01-10T01:51:28;-3.80;99.90
52531;DHT22;38441;52.894;6.040;2024-01-10T01:53:54;-3.80;99.90
52531;DHT22;38441;52.894;6.040;2024-01-10T01:56:21;-3.90;99.90
52531;DHT22;38441;52.894;6.040;2024-01-10T01:58:48;-3.90;99.90
52531;DHT22;38441;52.894;6.040;2024-01-10T02:01:15;-4.00;99.90
52531;DHT22;38441;52.894;6.040;2024-01-10T02:03:42;-3.90;99.90
52531;DHT22;38441;52.894;6.040;2024-01-10T02:06:07;-4.00;99.90
52531;DHT22;38441;52.894;6.040;2024-01-10T02:08:34;-4.00;99.90
52531;DHT22;38441;52.894;6.040;2024-01-10T02:11:01;-4.00;99.90
52531;DHT22;38441;52.894;6.040;2024-01-10T02:13:28;-4.10;99.90
52531;DHT22;38441;52.894;6.040;2024-01-10T02:15:54;-4.10;99.90
52531;DHT22;38441;52.894;6.040;2024-01-10T02:18:20;-4.20;99.90
52531;DHT22;38441;52.894;6.040;2024-01-10T02:20:45;-4.00;99.90
52531;DHT22;38441;52.894;6.040;2024-01-10T02:23:11;-4.00;99.90
52531;DHT22;38441;52.894;6.040;2024-01-10T02:25:38;-4.00;99.90
52531;DHT22;38441;52.894;6.040;2024-01-10T02:30:30;-4.00;99.90
52531;DHT22;38441;52.894;6.040;2024-01-10T02:32:56;-4.10;99.90
52531;DHT22;38441;52.894;6.040;2024-01-10T02:35:21;-4.20;99.90
52531;DHT22;38441;52.894;6.040;2024-01-10T02:37:47;-4.10;99.90
52531;DHT22;38441;52.894;6.040;2024-01-10T02:40:15;-4.30;99.90
52531;DHT22;38441;52.894;6.040;2024-01-10T02:42:41;-4.00;99.90
52531;DHT22;38441;52.894;6.040;2024-01-10T02:45:07;-4.10;99.90
52531;DHT22;38441;52.894;6.040;2024-01-10T02:47:33;-4.10;99.90
52531;DHT22;38441;52.894;6.040;2024-01-10T02:49:58;-4.20;99.90
52531;DHT22;38441;52.894;6.040;2024-01-10T02:52:24;-4.10;99.90
52531;DHT22;38441;52.894;6.040;2024-01-10T02:54:50;-4.20;99.90
52531;DHT22;38441;52.894;6.040;2024-01-10T02:57:15;-4.00;99.90
52531;DHT22;38441;52.894;6.040;2024-01-10T02:59:41;-4.20;99.90
52531;DHT22;38441;52.894;6.040;2024-01-10T03:02:07;-4.20;99.90
52531;DHT22;38441;52.894;6.040;2024-01-10T03:04:32;-4.00;99.90
52531;DHT22;38441;52.894;6.040;2024-01-10T03:06:58;-4.00;99.90
52531;DHT22;38441;52.894;6.040;2024-01-10T03:09:23;-4.30;99.90
52531;DHT22;38441;52.894;6.040;2024-01-10T03:11:49;-4.00;99.90
52531;DHT22;38441;52.894;6.040;2024-01-10T03:14:15;-4.10;99.90
52531;DHT22;38441;52.894;6.040;2024-01-10T03:16:40;-4.10;99.90
52531;DHT22;38441;52.894;6.040;2024-01-10T03:19:06;-4.10;99.90
52531;DHT22;38441;52.894;6.040;2024-01-10T03:21:32;-4.10;99.90
52531;DHT22;38441;52.894;6.040;2024-01-10T03:23:59;-4.10;99.90
52531;DHT22;38441;52.894;6.040;2024-01-10T03:26:26;-4.00;99.90
52531;DHT22;38441;52.894;6.040;2024-01-10T03:28:52;-4.10;99.90
52531;DHT22;38441;52.894;6.040;2024-01-10T03:31:18;-4.20;99.90
52531;DHT22;38441;52.894;6.040;2024-01-10T03:33:44;-4.20;99.90
52531;DHT22;38441;52.894;6.040;2024-01-10T03:36:16;-4.10;99.90
52531;DHT22;38441;52.894;6.040;2024-01-10T03:38:42;-4.20;99.90
52531;DHT22;38441;52.894;6.040;2024-01-10T03:41:22;-4.20;99.90
52531;DHT22;38441;52.894;6.040;2024-01-10T03:43:47;-4.10;99.90
52531;DHT22;38441;52.894;6.040;2024-01-10T03:46:13;-4.10;99.90
52531;DHT22;38441;52.894;6.040;2024-01-10T03:48:39;-4.10;99.90
52531;DHT22;38441;52.894;6.040;2024-01-10T03:51:13;-4.20;99.90
52531;DHT22;38441;52.894;6.040;2024-01-10T03:53:39;-4.20;99.90
52531;DHT22;38441;52.894;6.040;2024-01-10T03:56:05;-4.30;99.90
52531;DHT22;38441;52.894;6.040;2024-01-10T03:58:30;-4.30;99.90
52531;DHT22;38441;52.894;6.040;2024-01-10T04:00:56;-4.00;99.90
52531;DHT22;38441;52.894;6.040;2024-01-10T04:03:22;-4.40;99.90
52531;DHT22;38441;52.894;6.040;2024-01-10T04:05:47;-4.20;99.90
52531;DHT22;38441;52.894;6.040;2024-01-10T04:08:13;-4.30;99.90
52531;DHT22;38441;52.894;6.040;2024-01-10T04:10:39;-4.20;99.90
52531;DHT22;38441;52.894;6.040;2024-01-10T04:13:04;-4.20;99.90
52531;DHT22;38441;52.894;6.040;2024-01-10T04:15:33;-4.20;99.90
52531;DHT22;38441;52.894;6.040;2024-01-10T04:20:26;-4.30;99.90
52531;DHT22;38441;52.894;6.040;2024-01-10T04:22:51;-4.30;99.90
52531;DHT22;38441;52.894;6.040;2024-01-10T04:25:17;-4.10;99.90
52531;DHT22;38441;52.894;6.040;2024-01-10T04:30:09;-4.20;99.90
52531;DHT22;38441;52.894;6.040;2024-01-10T04:32:38;-4.20;99.90
52531;DHT22;38441;52.894;6.040;2024-01-10T04:35:04;-4.10;99.90
52531;DHT22;38441;52.894;6.040;2024-01-10T04:37:29;-4.30;99.90
52531;DHT22;38441;52.894;6.040;2024-01-10T04:42:21;-4.30;99.90
52531;DHT22;38441;52.894;6.040;2024-01-10T04:44:47;-4.00;99.90
52531;DHT22;38441;52.894;6.040;2024-01-10T04:47:12;-4.20;99.90
52531;DHT22;38441;52.894;6.040;2024-01-10T04:49:38;-4.40;99.90
52531;DHT22;38441;52.894;6.040;2024-01-10T04:52:04;-4.20;99.90
52531;DHT22;38441;52.894;6.040;2024-01-10T04:54:30;-4.30;99.90
52531;DHT22;38441;52.894;6.040;2024-01-10T04:56:55;-4.10;99.90
52531;DHT22;38441;52.894;6.040;2024-01-10T04:59:21;-4.30;99.90
52531;DHT22;38441;52.894;6.040;2024-01-10T05:01:46;-4.20;99.90
52531;DHT22;38441;52.894;6.040;2024-01-10T05:04:12;-4.30;99.90
52531;DHT22;38441;52.894;6.040;2024-01-10T05:06:38;-4.20;99.90
52531;DHT22;38441;52.894;6.040;2024-01-10T05:09:03;-4.20;99.90
52531;DHT22;38441;52.894;6.040;2024-01-10T05:11:30;-4.00;99.90
52531;DHT22;38441;52.894;6.040;2024-01-10T05:13:56;-4.20;99.90
52531;DHT22;38441;52.894;6.040;2024-01-10T05:16:21;-4.10;99.90
52531;DHT22;38441;52.894;6.040;2024-01-10T05:18:47;-4.30;99.90
52531;DHT22;38441;52.894;6.040;2024-01-10T05:21:12;-4.20;99.90
52531;DHT22;38441;52.894;6.040;2024-01-10T05:23:38;-4.30;99.90
52531;DHT22;38441;52.894;6.040;2024-01-10T05:26:05;-4.20;99.90
52531;DHT22;38441;52.894;6.040;2024-01-10T05:28:31;-4.30;99.90
52531;DHT22;38441;52.894;6.040;2024-01-10T05:30:58;-4.20;99.90
52531;DHT22;38441;52.894;6.040;2024-01-10T05:33:23;-4.50;99.90
52531;DHT22;38441;52.894;6.040;2024-01-10T05:35:49;-4.40;99.90
52531;DHT22;38441;52.894;6.040;2024-01-10T05:38:15;-4.40;99.90
52531;DHT22;38441;52.894;6.040;2024-01-10T05:40:40;-4.20;99.90
52531;DHT22;38441;52.894;6.040;2024-01-10T05:43:06;-4.20;99.90
52531;DHT22;38441;52.894;6.040;2024-01-10T05:45:32;-4.20;99.90
52531;DHT22;38441;52.894;6.040;2024-01-10T05:47:58;-4.20;99.90
52531;DHT22;38441;52.894;6.040;2024-01-10T05:50:24;-4.40;99.90
52531;DHT22;38441;52.894;6.040;2024-01-10T05:52:50;-4.20;99.90
52531;DHT22;38441;52.894;6.040;2024-01-10T05:55:16;-4.40;99.90
52531;DHT22;38441;52.894;6.040;2024-01-10T05:57:41;-4.30;99.90
52531;DHT22;38441;52.894;6.040;2024-01-10T06:00:08;-4.20;99.90
52531;DHT22;38441;52.894;6.040;2024-01-10T06:02:39;-4.40;99.90
52531;DHT22;38441;52.894;6.040;2024-01-10T06:05:09;-4.30;99.90
52531;DHT22;38441;52.894;6.040;2024-01-10T06:07:39;-4.40;99.90
52531;DHT22;38441;52.894;6.040;2024-01-10T06:10:06;-4.20;99.90
52531;DHT22;38441;52.894;6.040;2024-01-10T06:12:32;-4.10;99.90
52531;DHT22;38441;52.894;6.040;2024-01-10T06:14:58;-4.20;99.90
52531;DHT22;38441;52.894;6.040;2024-01-10T06:17:24;-4.30;99.90
52531;DHT22;38441;52.894;6.040;2024-01-10T06:19:50;-4.40;99.90
52531;DHT22;38441;52.894;6.040;2024-01-10T06:22:16;-4.30;99.90
52531;DHT22;38441;52.894;6.040;2024-01-10T06:24:45;-4.20;99.90
52531;DHT22;38441;52.894;6.040;2024-01-10T06:27:11;-4.30;99.90
52531;DHT22;38441;52.894;6.040;2024-01-10T06:29:37;-4.30;99.90
52531;DHT22;38441;52.894;6.040;2024-01-10T06:32:04;-4.20;99.90
52531;DHT22;38441;52.894;6.040;2024-01-10T06:34:29;-4.20;99.90
52531;DHT22;38441;52.894;6.040;2024-01-10T06:36:55;-4.20;99.90
52531;DHT22;38441;52.894;6.040;2024-01-10T06:39:21;-4.30;99.90
52531;DHT22;38441;52.894;6.040;2024-01-10T06:41:48;-4.10;99.90
52531;DHT22;38441;52.894;6.040;2024-01-10T06:44:14;-4.20;99.90
52531;DHT22;38441;52.894;6.040;2024-01-10T06:46:39;-4.30;99.90
52531;DHT22;38441;52.894;6.040;2024-01-10T06:49:05;-4.20;99.90
52531;DHT22;38441;52.894;6.040;2024-01-10T06:51:32;-4.20;99.90
52531;DHT22;38441;52.894;6.040;2024-01-10T06:53:58;-4.20;99.90
52531;DHT22;38441;52.894;6.040;2024-01-10T06:56:32;-4.20;99.90
52531;DHT22;38441;52.894;6.040;2024-01-10T06:58:59;-4.20;99.90
52531;DHT22;38441;52.894;6.040;2024-01-10T07:01:26;-4.30;99.90
52531;DHT22;38441;52.894;6.040;2024-01-10T07:03:52;-4.20;99.90
52531;DHT22;38441;52.894;6.040;2024-01-10T07:06:18;-4.30;99.90
52531;DHT22;38441;52.894;6.040;2024-01-10T07:08:44;-4.20;99.90
52531;DHT22;38441;52.894;6.040;2024-01-10T07:11:10;-4.10;99.90
52531;DHT22;38441;52.894;6.040;2024-01-10T07:13:40;-4.20;99.90
52531;DHT22;38441;52.894;6.040;2024-01-10T07:16:06;-4.10;99.90
52531;DHT22;38441;52.894;6.040;2024-01-10T07:18:32;-4.20;99.90
52531;DHT22;38441;52.894;6.040;2024-01-10T07:20:58;-4.20;99.90
52531;DHT22;38441;52.894;6.040;2024-01-10T07:23:23;-4.10;99.90
52531;DHT22;38441;52.894;6.040;2024-01-10T07:25:49;-4.10;99.90
52531;DHT22;38441;52.894;6.040;2024-01-10T07:28:16;-4.20;99.90
52531;DHT22;38441;52.894;6.040;2024-01-10T07:30:41;-4.10;99.90
52531;DHT22;38441;52.894;6.040;2024-01-10T07:33:07;-4.10;99.90
52531;DHT22;38441;52.894;6.040;2024-01-10T07:35:33;-4.20;99.90
52531;DHT22;38441;52.894;6.040;2024-01-10T07:37:59;-4.30;99.90
52531;DHT22;38441;52.894;6.040;2024-01-10T07:40:24;-4.30;99.90
52531;DHT22;38441;52.894;6.040;2024-01-10T07:42:50;-4.10;99.90
52531;DHT22;38441;52.894;6.040;2024-01-10T07:45:16;-4.10;99.90
52531;DHT22;38441;52.894;6.040;2024-01-10T07:47:41;-4.20;99.90
52531;DHT22;38441;52.894;6.040;2024-01-10T07:50:10;-4.10;99.90
52531;DHT22;38441;52.894;6.040;2024-01-10T07:52:39;-4.10;99.90
52531;DHT22;38441;52.894;6.040;2024-01-10T07:55:06;-4.20;99.90
52531;DHT22;38441;52.894;6.040;2024-01-10T07:57:35;-4.20;99.90
52531;DHT22;38441;52.894;6.040;2024-01-10T08:00:05;-4.20;99.90
52531;DHT22;38441;52.894;6.040;2024-01-10T08:02:31;-4.30;99.90
52531;DHT22;38441;52.894;6.040;2024-01-10T08:05:02;-4.20;99.90
52531;DHT22;38441;52.894;6.040;2024-01-10T08:07:34;-4.20;99.90
52531;DHT22;38441;52.894;6.040;2024-01-10T08:10:05;-4.10;99.90
52531;DHT22;38441;52.894;6.040;2024-01-10T08:12:30;-4.10;99.90
52531;DHT22;38441;52.894;6.040;2024-01-10T08:14:57;-4.10;99.90
52531;DHT22;38441;52.894;6.040;2024-01-10T08:17:23;-4.10;99.90
52531;DHT22;38441;52.894;6.040;2024-01-10T08:19:49;-4.10;99.90
52531;DHT22;38441;52.894;6.040;2024-01-10T08:22:14;-4.00;99.90
52531;DHT22;38441;52.894;6.040;2024-01-10T08:24:41;-4.00;99.90
52531;DHT22;38441;52.894;6.040;2024-01-10T08:27:06;-3.90;99.90
52531;DHT22;38441;52.894;6.040;2024-01-10T08:29:33;-4.00;99.90
52531;DHT22;38441;52.894;6.040;2024-01-10T08:31:59;-3.90;99.90
52531;DHT22;38441;52.894;6.040;2024-01-10T08:34:24;-3.80;99.90
52531;DHT22;38441;52.894;6.040;2024-01-10T08:36:51;-3.80;99.90
52531;DHT22;38441;52.894;6.040;2024-01-10T08:39:17;-3.90;99.90
52531;DHT22;38441;52.894;6.040;2024-01-10T08:41:42;-3.70;99.90
52531;DHT22;38441;52.894;6.040;2024-01-10T08:44:13;-3.90;99.90
52531;DHT22;38441;52.894;6.040;2024-01-10T08:46:38;-3.80;99.90
52531;DHT22;38441;52.894;6.040;2024-01-10T08:49:04;-3.70;99.90
52531;DHT22;38441;52.894;6.040;2024-01-10T08:51:30;-3.60;99.90
52531;DHT22;38441;52.894;6.040;2024-01-10T08:53:56;-3.60;99.90
52531;DHT22;38441;52.894;6.040;2024-01-10T08:56:22;-3.70;99.90
52531;DHT22;38441;52.894;6.040;2024-01-10T08:58:48;-3.60;99.90
52531;DHT22;38441;52.894;6.040;2024-01-10T09:01:13;-3.60;99.90
52531;DHT22;38441;52.894;6.040;2024-01-10T09:03:39;-3.60;99.90
52531;DHT22;38441;52.894;6.040;2024-01-10T09:06:05;-3.50;99.90
52531;DHT22;38441;52.894;6.040;2024-01-10T09:08:33;-3.50;99.90
52531;DHT22;38441;52.894;6.040;2024-01-10T09:10:59;-3.20;99.90
52531;DHT22;38441;52.894;6.040;2024-01-10T09:13:24;-3.60;99.90
52531;DHT22;38441;52.894;6.040;2024-01-10T09:15:50;-3.30;99.90
52531;DHT22;38441;52.894;6.040;2024-01-10T09:18:16;-3.60;99.90
52531;DHT22;38441;52.894;6.040;2024-01-10T09:20:42;-3.20;99.90
52531;DHT22;38441;52.894;6.040;2024-01-10T09:23:07;-3.20;99.90
52531;DHT22;38441;52.894;6.040;2024-01-10T09:25:33;-3.30;99.90
52531;DHT22;38441;52.894;6.040;2024-01-10T09:27:59;-3.20;99.90
52531;DHT22;38441;52.894;6.040;2024-01-10T09:30:24;-3.20;99.90
52531;DHT22;38441;52.894;6.040;2024-01-10T09:32:50;-3.10;99.90
52531;DHT22;38441;52.894;6.040;2024-01-10T09:35:15;-3.00;99.90
52531;DHT22;38441;52.894;6.040;2024-01-10T09:37:41;-3.10;99.90
52531;DHT22;38441;52.894;6.040;2024-01-10T09:40:07;-3.00;99.90
52531;DHT22;38441;52.894;6.040;2024-01-10T09:42:34;-3.00;99.90
52531;DHT22;38441;52.894;6.040;2024-01-10T09:45:03;-2.80;99.90
52531;DHT22;38441;52.894;6.040;2024-01-10T09:47:31;-2.80;99.90
52531;DHT22;38441;52.894;6.040;2024-01-10T09:49:58;-2.80;99.90
52531;DHT22;38441;52.894;6.040;2024-01-10T09:52:26;-2.70;99.90
52531;DHT22;38441;52.894;6.040;2024-01-10T09:54:57;-2.60;99.90
52531;DHT22;38441;52.894;6.040;2024-01-10T09:57:26;-2.60;99.90
52531;DHT22;38441;52.894;6.040;2024-01-10T09:59:52;-2.60;99.90
52531;DHT22;38441;52.894;6.040;2024-01-10T10:02:18;-2.60;99.90
52531;DHT22;38441;52.894;6.040;2024-01-10T10:07:50;-2.60;99.90
52531;DHT22;38441;52.894;6.040;2024-01-10T10:10:17;-2.70;99.90
52531;DHT22;38441;52.894;6.040;2024-01-10T10:12:47;-2.30;99.90
52531;DHT22;38441;52.894;6.040;2024-01-10T10:15:15;-2.50;99.90
52531;DHT22;38441;52.894;6.040;2024-01-10T10:17:45;-2.40;99.90
52531;DHT22;38441;52.894;6.040;2024-01-10T10:20:27;-2.20;99.90
52531;DHT22;38441;52.894;6.040;2024-01-10T10:23:07;-2.30;99.90
52531;DHT22;38441;52.894;6.040;2024-01-10T10:25:45;-2.10;99.90
52531;DHT22;38441;52.894;6.040;2024-01-10T10:28:12;-2.10;99.90
52531;DHT22;38441;52.894;6.040;2024-01-10T10:30:40;-2.10;99.90
52531;DHT22;38441;52.894;6.040;2024-01-10T10:33:06;-2.30;99.90
52531;DHT22;38441;52.894;6.040;2024-01-10T10:35:34;-2.10;99.90
52531;DHT22;38441;52.894;6.040;2024-01-10T10:40:26;-2.00;99.90
52531;DHT22;38441;52.894;6.040;2024-01-10T10:42:55;-1.90;99.90
52531;DHT22;38441;52.894;6.040;2024-01-10T10:45:22;-1.80;99.90
52531;DHT22;38441;52.894;6.040;2024-01-10T10:47:58;-1.90;99.90
52531;DHT22;38441;52.894;6.040;2024-01-10T10:50:28;-1.70;99.90
52531;DHT22;38441;52.894;6.040;2024-01-10T10:52:55;-1.70;99.90
52531;DHT22;38441;52.894;6.040;2024-01-10T10:55:24;-1.80;99.90
52531;DHT22;38441;52.894;6.040;2024-01-10T10:57:52;-1.60;99.90
52531;DHT22;38441;52.894;6.040;2024-01-10T11:00:20;-1.60;99.90
52531;DHT22;38441;52.894;6.040;2024-01-10T11:02:47;-1.50;99.90
52531;DHT22;38441;52.894;6.040;2024-01-10T11:05:15;-1.60;99.90
52531;DHT22;38441;52.894;6.040;2024-01-10T11:07:42;-1.50;99.90
52531;DHT22;38441;52.894;6.040;2024-01-10T11:10:22;-1.50;99.90
52531;DHT22;38441;52.894;6.040;2024-01-10T11:26:27;-1.10;99.90
52531;DHT22;38441;52.894;6.040;2024-01-10T11:28:53;-1.20;99.90
52531;DHT22;38441;52.894;6.040;2024-01-10T11:31:29;-1.20;99.90
52531;DHT22;38441;52.894;6.040;2024-01-10T11:33:57;-1.10;99.90
52531;DHT22;38441;52.894;6.040;2024-01-10T11:41:26;-1.00;99.90
52531;DHT22;38441;52.894;6.040;2024-01-10T11:46:50;-0.80;99.90
52531;DHT22;38441;52.894;6.040;2024-01-10T11:49:19;-1.00;99.90
52531;DHT22;38441;52.894;6.040;2024-01-10T11:51:53;-0.90;99.90
52531;DHT22;38441;52.894;6.040;2024-01-10T11:54:48;-0.80;99.90
52531;DHT22;38441;52.894;6.040;2024-01-10T11:57:21;-0.70;99.90
52531;DHT22;38441;52.894;6.040;2024-01-10T11:59:52;-0.80;99.90
52531;DHT22;38441;52.894;6.040;2024-01-10T12:02:18;-0.90;99.90
52531;DHT22;38441;52.894;6.040;2024-01-10T12:04:45;-0.70;99.90
52531;DHT22;38441;52.894;6.040;2024-01-10T12:07:15;-0.80;99.90
52531;DHT22;38441;52.894;6.040;2024-01-10T12:09:41;-0.70;99.90
52531;DHT22;38441;52.894;6.040;2024-01-10T12:12:07;-0.70;99.90
52531;DHT22;38441;52.894;6.040;2024-01-10T12:14:34;-0.80;99.90
52531;DHT22;38441;52.894;6.040;2024-01-10T12:17:00;-0.80;99.90
52531;DHT22;38441;52.894;6.040;2024-01-10T12:19:27;-0.70;99.90
52531;DHT22;38441;52.894;6.040;2024-01-10T12:21:52;-0.60;99.90
52531;DHT22;38441;52.894;6.040;2024-01-10T12:24:19;-0.60;99.90
52531;DHT22;38441;52.894;6.040;2024-01-10T12:26:46;-0.80;99.90
52531;DHT22;38441;52.894;6.040;2024-01-10T12:29:12;-0.60;99.90
52531;DHT22;38441;52.894;6.040;2024-01-10T12:31:38;-0.70;99.90
52531;DHT22;38441;52.894;6.040;2024-01-10T12:34:07;-0.60;99.90
52531;DHT22;38441;52.894;6.040;2024-01-10T12:36:32;-0.50;99.90
52531;DHT22;38441;52.894;6.040;2024-01-10T12:38:58;-0.40;99.90
52531;DHT22;38441;52.894;6.040;2024-01-10T12:41:24;-0.60;99.90
52531;DHT22;38441;52.894;6.040;2024-01-10T12:43:55;-0.40;99.90
52531;DHT22;38441;52.894;6.040;2024-01-10T12:46:21;-0.40;99.90
52531;DHT22;38441;52.894;6.040;2024-01-10T12:48:59;-0.30;99.90
52531;DHT22;38441;52.894;6.040;2024-01-10T12:51:26;-0.40;99.90
52531;DHT22;38441;52.894;6.040;2024-01-10T12:53:52;-0.30;99.90
52531;DHT22;38441;52.894;6.040;2024-01-10T13:01:11;-0.30;99.90
52531;DHT22;38441;52.894;6.040;2024-01-10T13:03:38;-0.20;99.90
52531;DHT22;38441;52.894;6.040;2024-01-10T13:06:04;-0.20;99.90
52531;DHT22;38441;52.894;6.040;2024-01-10T13:08:30;-0.30;99.90
52531;DHT22;38441;52.894;6.040;2024-01-10T13:10:57;-0.30;99.90
52531;DHT22;38441;52.894;6.040;2024-01-10T13:13:23;-0.40;99.90
52531;DHT22;38441;52.894;6.040;2024-01-10T13:15:49;-0.20;99.90
52531;DHT22;38441;52.894;6.040;2024-01-10T13:18:33;-0.20;99.90
52531;DHT22;38441;52.894;6.040;2024-01-10T13:20:59;-0.20;99.90
52531;DHT22;38441;52.894;6.040;2024-01-10T13:23:24;-0.20;99.90
52531;DHT22;38441;52.894;6.040;2024-01-10T13:25:50;-0.30;99.90
52531;DHT22;38441;52.894;6.040;2024-01-10T13:28:18;-0.20;99.90
52531;DHT22;38441;52.894;6.040;2024-01-10T13:30:43;-0.20;99.90
52531;DHT22;38441;52.894;6.040;2024-01-10T13:33:10;-0.10;99.90
52531;DHT22;38441;52.894;6.040;2024-01-10T13:35:36;-0.10;99.90
52531;DHT22;38441;52.894;6.040;2024-01-10T13:38:02;-0.10;99.90
52531;DHT22;38441;52.894;6.040;2024-01-10T13:40:28;-0.30;99.90
52531;DHT22;38441;52.894;6.040;2024-01-10T13:42:54;-0.10;99.90
52531;DHT22;38441;52.894;6.040;2024-01-10T13:45:20;-0.10;99.90
52531;DHT22;38441;52.894;6.040;2024-01-10T13:47:46;0.00;99.90
52531;DHT22;38441;52.894;6.040;2024-01-10T13:50:12;-0.10;99.90
52531;DHT22;38441;52.894;6.040;2024-01-10T13:52:38;-0.10;99.90
52531;DHT22;38441;52.894;6.040;2024-01-10T13:55:04;0.00;99.90
52531;DHT22;38441;52.894;6.040;2024-01-10T13:57:30;0.00;99.90
52531;DHT22;38441;52.894;6.040;2024-01-10T13:59:58;-0.30;99.90
52531;DHT22;38441;52.894;6.040;2024-01-10T14:02:24;0.00;99.90
52531;DHT22;38441;52.894;6.040;2024-01-10T14:04:50;-0.10;99.90
52531;DHT22;38441;52.894;6.040;2024-01-10T14:07:16;-0.10;99.90
52531;DHT22;38441;52.894;6.040;2024-01-10T14:09:42;-0.20;99.90
52531;DHT22;38441;52.894;6.040;2024-01-10T14:12:08;-0.10;99.90
52531;DHT22;38441;52.894;6.040;2024-01-10T14:14:34;-0.10;99.90
52531;DHT22;38441;52.894;6.040;2024-01-10T14:16:59;-0.20;99.90
52531;DHT22;38441;52.894;6.040;2024-01-10T14:19:25;-0.20;99.90
52531;DHT22;38441;52.894;6.040;2024-01-10T14:21:51;-0.20;99.90
52531;DHT22;38441;52.894;6.040;2024-01-10T14:24:17;0.20;99.90
52531;DHT22;38441;52.894;6.040;2024-01-10T14:26:43;-0.10;99.90
52531;DHT22;38441;52.894;6.040;2024-01-10T14:29:09;-0.30;99.90
52531;DHT22;38441;52.894;6.040;2024-01-10T14:31:35;-0.20;99.90
52531;DHT22;38441;52.894;6.040;2024-01-10T14:34:00;-0.10;99.90
52531;DHT22;38441;52.894;6.040;2024-01-10T14:36:37;-0.10;99.90
52531;DHT22;38441;52.894;6.040;2024-01-10T14:39:03;-0.30;99.90
52531;DHT22;38441;52.894;6.040;2024-01-10T14:41:32;-0.30;99.90
52531;DHT22;38441;52.894;6.040;2024-01-10T14:43:58;-0.50;99.90
52531;DHT22;38441;52.894;6.040;2024-01-10T14:46:38;-0.20;99.90
52531;DHT22;38441;52.894;6.040;2024-01-10T14:49:04;-0.40;99.90
52531;DHT22;38441;52.894;6.040;2024-01-10T14:51:30;-0.40;99.90
52531;DHT22;38441;52.894;6.040;2024-01-10T14:53:55;-0.50;99.90
52531;DHT22;38441;52.894;6.040;2024-01-10T14:56:21;-0.30;99.90
52531;DHT22;38441;52.894;6.040;2024-01-10T14:58:48;-0.50;99.90
52531;DHT22;38441;52.894;6.040;2024-01-10T15:01:16;-0.40;99.90
52531;DHT22;38441;52.894;6.040;2024-01-10T15:03:42;-0.60;99.90
52531;DHT22;38441;52.894;6.040;2024-01-10T15:06:08;-0.50;99.90
52531;DHT22;38441;52.894;6.040;2024-01-10T15:08:33;-0.60;99.90
52531;DHT22;38441;52.894;6.040;2024-01-10T15:11:01;-0.40;99.90
52531;DHT22;38441;52.894;6.040;2024-01-10T15:13:27;-0.60;99.90
52531;DHT22;38441;52.894;6.040;2024-01-10T15:15:52;-0.50;99.90
52531;DHT22;38441;52.894;6.040;2024-01-10T15:18:18;-0.70;99.90
52531;DHT22;38441;52.894;6.040;2024-01-10T15:20:45;-0.80;99.90
52531;DHT22;38441;52.894;6.040;2024-01-10T15:23:11;-0.80;99.90
52531;DHT22;38441;52.894;6.040;2024-01-10T15:25:37;-0.80;99.90
52531;DHT22;38441;52.894;6.040;2024-01-10T15:28:02;-0.90;99.90
52531;DHT22;38441;52.894;6.040;2024-01-10T15:30:29;-1.00;99.90
52531;DHT22;38441;52.894;6.040;2024-01-10T15:32:55;-0.90;99.90
52531;DHT22;38441;52.894;6.040;2024-01-10T15:35:20;-0.90;99.90
52531;DHT22;38441;52.894;6.040;2024-01-10T15:37:46;-1.00;99.90
52531;DHT22;38441;52.894;6.040;2024-01-10T15:40:12;-1.20;99.90
52531;DHT22;38441;52.894;6.040;2024-01-10T15:42:39;-1.00;99.90
52531;DHT22;38441;52.894;6.040;2024-01-10T15:45:05;-1.00;99.90
52531;DHT22;38441;52.894;6.040;2024-01-10T15:47:31;-1.00;99.90
52531;DHT22;38441;52.894;6.040;2024-01-10T15:49:57;-1.20;99.90
52531;DHT22;38441;52.894;6.040;2024-01-10T15:52:23;-1.10;99.90
52531;DHT22;38441;52.894;6.040;2024-01-10T15:54:57;-1.30;99.90
52531;DHT22;38441;52.894;6.040;2024-01-10T15:57:24;-1.20;99.90
52531;DHT22;38441;52.894;6.040;2024-01-10T15:59:50;-1.30;99.90
52531;DHT22;38441;52.894;6.040;2024-01-10T16:02:17;-1.20;99.90
52531;DHT22;38441;52.894;6.040;2024-01-10T16:04:42;-1.30;99.90
52531;DHT22;38441;52.894;6.040;2024-01-10T16:07:08;-1.40;99.90
52531;DHT22;38441;52.894;6.040;2024-01-10T16:09:36;-1.30;99.90
52531;DHT22;38441;52.894;6.040;2024-01-10T16:12:02;-1.30;99.90